Portada
METAR-TAF:

METAR-TAF

Aeroports :

Kansas City, Missouri, Estats Units d'Amèrica

latitud: 39-17-50N, longitud: 094-43-50W, altitud: 312 m

Observació

L'informe es va fer fa 24 minuts, a les 12:53 UTC
Vent 12 kt del Sud/Sud-Oest
Temperatura -1°C
Humitat 59%
Pressió 1014 hPa
Visibilitat: 16.1 km
Cel ennuvolat a una alçada de 25000 ft

METAR: KMCI 191253Z 20012KT 10SM BKN250 M01/M08 A2993 RMK AO2 SLP143 T10061083

Hora: 07:17 (13:17 UTC)

Pronòstic

L'informe es va fer fa 1 hora i 57 minuts, a les 11:20 UTC
Pronòstic vàlid del 19 a les 12 UTC al 20 a les 12 UTC
Vent 15 kt del Sud/Sud-Oest
Visibilitat: 10 km
Escasses núvols a una alçada de 20000 ft
A partir de les 20 a les 0800 UTC
Vent 10 kt del Sud/Sud-Oest
Visibilitat: 10 km
Cel cobert a una alçada de 2500 ft

TAF: KMCI 191120Z 1912/2012 21015KT P6SM FEW200 FM200800 20010KT P6SM OVC025

Observacions i pronòstics meteorològics de més de 4000 aeroports (METAR i TAF).

Les estacions disponibles són els punts grocs i vermells al mapa.

Posi el ratolí al punt desitjat per veure el nom de l'estació.

Feu clic per veure les observacions i els pronòstics meteorològics.

Per canviar el mapa: feu clic els botons verds amb una creu de color negre per apropar; al botó verd amb un guió per allunyar la imatge; o en les fletxes verdes per a mapes adjacents.


METAR-TAF: